Time;durP1;ratioP1;P1;durP2;ratioP2;P2;SDS_P1;SDS_P2;PMS_P1;PMS_P2;Temp;Humidity;BMP_temperature;BMP_pressure;BME280_temperature;BME280_humidity;BME280_pressure;Samples;Min_cycle;Max_cycle;Signal;HPM_P1;HPM_P2
2023/01/26 00:01:34;;;;;;;;;;;0.60;99.90;;;;;;5018180;28;19944;-77
2023/01/26 00:03:59;;;;;;;;;;;0.60;99.90;;;;;;5015411;28;19909;-78
2023/01/26 00:06:25;;;;;;;;;;;0.70;99.90;;;;;;5015598;28;19921;-77
2023/01/26 00:08:52;;;;;;;;;;;0.60;99.90;;;;;;5015943;28;19909;-77
2023/01/26 00:11:19;;;;;;;;;;;0.70;99.90;;;;;;4987734;28;19916;-78
2023/01/26 00:13:45;;;;;;;;;;;0.70;99.90;;;;;;5016726;28;19916;-78
2023/01/26 00:16:11;;;;;;;;;;;0.50;99.90;;;;;;5010350;28;19921;-78
2023/01/26 00:18:37;;;;;;;;;;;0.50;99.90;;;;;;5014047;28;19919;-78
2023/01/26 00:21:03;;;;;;;;;;;0.60;99.90;;;;;;5011716;28;19936;-77
2023/01/26 00:23:30;;;;;;;;;;;0.60;99.90;;;;;;5016470;28;20443;-78
2023/01/26 00:25:56;;;;;;;;;;;0.50;99.90;;;;;;5011818;28;20026;-78
2023/01/26 00:28:22;;;;;;;;;;;0.70;99.90;;;;;;5019785;28;20741;-77
2023/01/26 00:30:47;;;;;;;;;;;0.80;99.90;;;;;;5006025;28;19910;-75
2023/01/26 00:33:13;;;;;;;;;;;0.80;99.90;;;;;;5010111;28;19912;-77
2023/01/26 00:35:43;;;;;;;;;;;0.80;99.90;;;;;;5015218;28;19917;-77
2023/01/26 00:38:13;;;;;;;;;;;0.70;99.90;;;;;;4992147;28;19913;-77
2023/01/26 00:40:39;;;;;;;;;;;0.90;99.90;;;;;;5012446;28;20610;-77
2023/01/26 00:43:05;;;;;;;;;;;0.70;99.90;;;;;;5016696;28;19917;-77
2023/01/26 00:45:30;;;;;;;;;;;0.60;99.90;;;;;;5016885;28;19913;-76
2023/01/26 00:47:56;;;;;;;;;;;0.60;99.90;;;;;;5012692;28;19963;-76
2023/01/26 00:50:21;;;;;;;;;;;0.70;99.90;;;;;;5014803;28;19963;-78
2023/01/26 00:52:47;;;;;;;;;;;0.90;99.90;;;;;;5011591;28;19945;-78
2023/01/26 00:55:13;;;;;;;;;;;0.90;99.90;;;;;;5014446;28;20560;-77
2023/01/26 00:57:38;;;;;;;;;;;0.80;99.90;;;;;;5021212;28;19913;-77
2023/01/26 01:00:05;;;;;;;;;;;0.70;99.90;;;;;;5014741;28;19960;-77
2023/01/26 01:02:30;;;;;;;;;;;0.80;99.90;;;;;;5011691;28;19960;-78
2023/01/26 01:04:56;;;;;;;;;;;0.90;99.90;;;;;;5020643;28;20443;-77
2023/01/26 01:07:22;;;;;;;;;;;0.70;99.90;;;;;;5021129;28;19916;-77
2023/01/26 01:09:47;;;;;;;;;;;0.70;99.90;;;;;;5015469;28;20019;-78
2023/01/26 01:12:13;;;;;;;;;;;0.80;99.90;;;;;;5016657;28;20364;-76
2023/01/26 01:14:38;;;;;;;;;;;0.60;99.90;;;;;;5009157;28;19920;-77
2023/01/26 01:17:04;;;;;;;;;;;0.60;99.90;;;;;;5016017;28;19913;-77
2023/01/26 01:19:30;;;;;;;;;;;0.60;99.90;;;;;;5019198;28;19909;-78
2023/01/26 01:21:55;;;;;;;;;;;0.70;99.90;;;;;;5008536;28;20015;-77
2023/01/26 01:24:21;;;;;;;;;;;0.70;99.90;;;;;;5021106;28;19952;-76
2023/01/26 01:26:46;;;;;;;;;;;0.70;99.90;;;;;;5016354;28;19968;-78
2023/01/26 01:29:12;;;;;;;;;;;0.70;99.90;;;;;;5016657;28;19916;-77
2023/01/26 01:31:38;;;;;;;;;;;0.70;99.90;;;;;;5022234;28;19910;-77
2023/01/26 01:34:04;;;;;;;;;;;0.80;99.90;;;;;;5017391;28;20314;-77
2023/01/26 01:36:30;;;;;;;;;;;0.90;99.90;;;;;;5011399;28;19914;-77
2023/01/26 01:38:56;;;;;;;;;;;0.90;99.90;;;;;;5009509;28;19968;-78
2023/01/26 01:41:22;;;;;;;;;;;0.70;99.90;;;;;;5017677;28;19944;-77
2023/01/26 01:43:48;;;;;;;;;;;0.70;99.90;;;;;;5017909;28;19909;-77
2023/01/26 01:46:25;;;;;;;;;;;0.80;99.90;;;;;;5017118;28;19909;-77
2023/01/26 01:48:53;;;;;;;;;;;1.00;99.90;;;;;;5013815;28;19909;-76
2023/01/26 01:51:24;;;;;;;;;;;1.00;99.90;;;;;;5018699;28;19917;-78
2023/01/26 01:53:50;;;;;;;;;;;0.90;99.90;;;;;;5018754;28;19916;-78
2023/01/26 01:56:20;;;;;;;;;;;0.90;99.90;;;;;;5014761;28;19956;-77
2023/01/26 01:58:47;;;;;;;;;;;1.00;99.90;;;;;;5017786;28;19971;-78
2023/01/26 02:01:13;;;;;;;;;;;1.00;99.90;;;;;;5019389;28;19949;-78
2023/01/26 02:03:39;;;;;;;;;;;0.90;99.90;;;;;;5015431;28;19944;-77
2023/01/26 02:06:37;;;;;;;;;;;0.70;99.90;;;;;;5015612;28;20011;-79
2023/01/26 02:09:03;;;;;;;;;;;0.80;99.90;;;;;;4973439;28;19909;-79
2023/01/26 02:11:32;;;;;;;;;;;0.80;99.90;;;;;;5015330;28;19917;-77
2023/01/26 02:13:59;;;;;;;;;;;0.80;99.90;;;;;;5015261;28;19909;-77
2023/01/26 02:16:25;;;;;;;;;;;0.90;99.90;;;;;;5017685;28;19912;-78
2023/01/26 02:18:50;;;;;;;;;;;0.90;99.90;;;;;;5009976;28;19913;-78
2023/01/26 02:21:17;;;;;;;;;;;1.00;99.90;;;;;;5008536;28;19916;-77
2023/01/26 02:23:53;;;;;;;;;;;0.90;99.90;;;;;;5017220;28;20015;-78
2023/01/26 02:26:20;;;;;;;;;;;0.90;99.90;;;;;;5011456;28;19917;-77
2023/01/26 02:28:46;;;;;;;;;;;0.80;99.90;;;;;;5010352;28;20037;-77
2023/01/26 02:31:12;;;;;;;;;;;0.80;99.90;;;;;;5018732;28;19908;-77
2023/01/26 02:33:38;;;;;;;;;;;0.80;99.90;;;;;;5010007;28;19910;-79
2023/01/26 02:36:04;;;;;;;;;;;0.80;99.90;;;;;;5007389;28;19920;-77
2023/01/26 02:38:35;;;;;;;;;;;0.90;99.90;;;;;;5017894;28;20693;-78
2023/01/26 02:41:12;;;;;;;;;;;1.00;99.90;;;;;;5011736;28;19909;-76
2023/01/26 02:43:37;;;;;;;;;;;0.90;99.90;;;;;;5021792;28;20653;-77
2023/01/26 02:46:03;;;;;;;;;;;1.00;99.90;;;;;;5019635;28;19916;-79
2023/01/26 02:51:21;;;;;;;;;;;0.90;99.90;;;;;;4988165;28;19932;-77
2023/01/26 02:53:46;;;;;;;;;;;0.90;99.90;;;;;;5009373;28;20670;-77
2023/01/26 02:56:12;;;;;;;;;;;1.00;99.90;;;;;;5014852;28;19913;-77
2023/01/26 02:58:37;;;;;;;;;;;1.00;99.90;;;;;;5015927;28;19912;-77
2023/01/26 03:01:03;;;;;;;;;;;0.90;99.90;;;;;;5020792;28;19919;-78
2023/01/26 03:03:40;;;;;;;;;;;1.00;99.90;;;;;;5008406;28;19972;-78
2023/01/26 03:06:07;;;;;;;;;;;1.00;99.90;;;;;;5011517;28;19966;-77
2023/01/26 03:08:33;;;;;;;;;;;1.00;99.90;;;;;;5012128;28;19910;-76
2023/01/26 03:10:59;;;;;;;;;;;0.90;99.90;;;;;;5018638;28;19940;-77
2023/01/26 03:13:24;;;;;;;;;;;0.90;99.90;;;;;;5018468;28;19917;-77
2023/01/26 03:15:53;;;;;;;;;;;0.90;99.90;;;;;;5015809;28;20487;-77
2023/01/26 03:29:18;;;;;;;;;;;0.90;99.90;;;;;;5013614;28;20588;-77
2023/01/26 03:31:44;;;;;;;;;;;1.00;99.90;;;;;;5019754;28;19912;-78
2023/01/26 03:34:10;;;;;;;;;;;0.90;99.90;;;;;;5007156;28;19910;-78
2023/01/26 03:36:36;;;;;;;;;;;1.00;99.90;;;;;;5004566;28;19958;-77
2023/01/26 03:39:03;;;;;;;;;;;1.10;99.90;;;;;;5011702;28;19940;-77
2023/01/26 03:57:53;;;;;;;;;;;0.90;99.90;;;;;;5020691;28;19992;-76
2023/01/26 04:00:20;;;;;;;;;;;0.90;99.90;;;;;;5016639;28;20701;-77
2023/01/26 04:08:25;;;;;;;;;;;0.90;99.90;;;;;;5008150;28;19916;-77
2023/01/26 04:10:54;;;;;;;;;;;1.00;99.90;;;;;;5013888;28;20011;-77
2023/01/26 04:21:34;;;;;;;;;;;1.10;99.90;;;;;;5011056;28;19916;-77
2023/01/26 04:24:01;;;;;;;;;;;1.10;99.90;;;;;;5011768;28;19917;-78
2023/01/26 04:26:33;;;;;;;;;;;1.00;99.90;;;;;;5008387;28;19909;-77
2023/01/26 04:29:03;;;;;;;;;;;1.00;99.90;;;;;;5011663;28;19921;-78
2023/01/26 04:31:29;;;;;;;;;;;1.10;99.90;;;;;;5005561;28;20379;-77
2023/01/26 04:33:54;;;;;;;;;;;1.10;99.90;;;;;;5008201;28;19909;-79
2023/01/26 04:36:20;;;;;;;;;;;1.10;99.90;;;;;;5012011;28;19914;-78
2023/01/26 04:38:45;;;;;;;;;;;1.10;99.90;;;;;;5006723;28;20388;-78
2023/01/26 04:41:11;;;;;;;;;;;1.00;99.90;;;;;;5014261;28;20454;-76
2023/01/26 04:43:37;;;;;;;;;;;1.00;99.90;;;;;;5003794;28;19913;-78
2023/01/26 04:46:03;;;;;;;;;;;1.10;99.90;;;;;;5006584;28;19916;-77
2023/01/26 04:48:29;;;;;;;;;;;1.00;99.90;;;;;;5013441;28;20590;-76
2023/01/26 04:50:55;;;;;;;;;;;1.00;99.90;;;;;;5013609;28;19918;-77
2023/01/26 04:53:21;;;;;;;;;;;0.80;99.90;;;;;;5011620;28;19976;-77
2023/01/26 04:55:47;;;;;;;;;;;0.80;99.90;;;;;;5007448;28;20447;-78
2023/01/26 04:58:12;;;;;;;;;;;1.00;99.90;;;;;;5008065;28;19918;-78
2023/01/26 05:00:38;;;;;;;;;;;1.00;99.90;;;;;;5007129;28;19922;-78
2023/01/26 05:03:03;;;;;;;;;;;1.00;99.90;;;;;;5008504;28;19999;-77
2023/01/26 05:05:29;;;;;;;;;;;1.10;99.90;;;;;;5011493;28;20008;-78
2023/01/26 05:07:54;;;;;;;;;;;1.10;99.90;;;;;;5011046;28;20012;-78
2023/01/26 05:10:20;;;;;;;;;;;1.10;99.90;;;;;;4990927;28;19945;-78
2023/01/26 05:12:46;;;;;;;;;;;1.10;99.90;;;;;;5003106;28;19921;-77
2023/01/26 05:15:11;;;;;;;;;;;1.00;99.90;;;;;;5007233;28;19921;-76
2023/01/26 05:17:37;;;;;;;;;;;1.10;99.90;;;;;;5008181;28;19913;-76
2023/01/26 05:20:03;;;;;;;;;;;1.00;99.90;;;;;;5002450;28;19916;-77
2023/01/26 05:22:29;;;;;;;;;;;1.00;99.90;;;;;;5014256;28;19922;-76
2023/01/26 05:24:54;;;;;;;;;;;1.00;99.90;;;;;;5015858;28;19909;-78
2023/01/26 05:27:20;;;;;;;;;;;0.90;99.90;;;;;;5007461;28;20001;-77
2023/01/26 05:29:45;;;;;;;;;;;0.90;99.90;;;;;;5003744;28;19919;-79
2023/01/26 05:32:11;;;;;;;;;;;1.00;99.90;;;;;;5012442;28;19909;-78
2023/01/26 05:34:37;;;;;;;;;;;1.00;99.90;;;;;;5007047;28;19931;-79
2023/01/26 05:37:02;;;;;;;;;;;1.00;99.90;;;;;;5004653;28;19955;-79
2023/01/26 05:39:28;;;;;;;;;;;1.00;99.90;;;;;;5019604;28;20008;-78
2023/01/26 05:41:56;;;;;;;;;;;1.10;99.90;;;;;;5010601;28;19961;-79
2023/01/26 05:44:23;;;;;;;;;;;1.00;99.90;;;;;;4999068;28;20671;-78
2023/01/26 05:46:49;;;;;;;;;;;1.10;99.90;;;;;;5009446;28;20387;-77
2023/01/26 05:49:15;;;;;;;;;;;0.90;99.90;;;;;;5016975;28;19909;-78
2023/01/26 05:51:40;;;;;;;;;;;1.00;99.90;;;;;;5019137;28;19909;-78
2023/01/26 05:54:06;;;;;;;;;;;1.00;99.90;;;;;;5024100;28;19913;-77
2023/01/26 05:56:31;;;;;;;;;;;1.10;99.90;;;;;;5023698;28;19920;-79
2023/01/26 05:58:57;;;;;;;;;;;1.00;99.90;;;;;;5023802;28;19925;-79
2023/01/26 06:01:23;;;;;;;;;;;1.00;99.90;;;;;;5021677;28;19913;-78
2023/01/26 06:03:48;;;;;;;;;;;1.00;99.90;;;;;;5023655;28;19958;-79
2023/01/26 06:06:14;;;;;;;;;;;1.00;99.90;;;;;;5020750;28;19909;-78
2023/01/26 06:08:39;;;;;;;;;;;1.10;99.90;;;;;;5024712;28;19909;-78
2023/01/26 06:11:05;;;;;;;;;;;1.10;99.90;;;;;;5022398;28;19917;-78
2023/01/26 06:13:31;;;;;;;;;;;1.10;99.90;;;;;;5019857;28;19912;-80
2023/01/26 06:15:59;;;;;;;;;;;1.00;99.90;;;;;;5015981;28;19968;-79
2023/01/26 06:18:24;;;;;;;;;;;1.00;99.90;;;;;;5011928;28;19913;-79
2023/01/26 06:20:50;;;;;;;;;;;1.10;99.90;;;;;;5007377;28;20236;-79
2023/01/26 06:23:15;;;;;;;;;;;1.10;99.90;;;;;;5010212;28;19921;-79
2023/01/26 06:25:41;;;;;;;;;;;1.10;99.90;;;;;;5018704;28;19909;-80
2023/01/26 06:28:07;;;;;;;;;;;1.20;99.90;;;;;;5008281;28;19939;-81
2023/01/26 06:30:35;;;;;;;;;;;1.20;99.90;;;;;;5016270;28;19916;-80
2023/01/26 06:33:01;;;;;;;;;;;1.10;99.90;;;;;;5005659;28;20482;-80
2023/01/26 06:35:27;;;;;;;;;;;1.00;99.90;;;;;;5021094;28;20039;-79
2023/01/26 06:37:52;;;;;;;;;;;1.10;99.90;;;;;;5023318;28;20399;-80
2023/01/26 06:40:18;;;;;;;;;;;1.10;99.90;;;;;;5014805;28;19945;-77
2023/01/26 06:42:48;;;;;;;;;;;1.10;99.90;;;;;;5023736;28;20019;-77
2023/01/26 06:45:14;;;;;;;;;;;1.10;99.90;;;;;;5013714;28;20381;-80
2023/01/26 06:47:44;;;;;;;;;;;1.10;99.90;;;;;;5022888;28;19913;-79
2023/01/26 06:50:10;;;;;;;;;;;1.10;99.90;;;;;;5005236;28;19992;-79
2023/01/26 06:52:35;;;;;;;;;;;1.20;99.90;;;;;;5022566;28;19952;-79
2023/01/26 06:55:01;;;;;;;;;;;1.10;99.90;;;;;;5022851;28;19916;-79
2023/01/26 06:57:27;;;;;;;;;;;1.10;99.90;;;;;;5023811;28;19909;-80
2023/01/26 06:59:53;;;;;;;;;;;1.10;99.90;;;;;;5008485;28;19928;-78
2023/01/26 07:02:20;;;;;;;;;;;1.00;99.90;;;;;;5016900;28;19909;-76
2023/01/26 07:04:46;;;;;;;;;;;1.00;99.90;;;;;;5017712;28;19921;-79
2023/01/26 07:07:11;;;;;;;;;;;1.00;99.90;;;;;;5013838;28;19909;-79
2023/01/26 07:09:37;;;;;;;;;;;1.00;99.90;;;;;;5011148;28;19916;-75
2023/01/26 07:12:03;;;;;;;;;;;1.00;99.90;;;;;;5010580;28;19910;-78
2023/01/26 07:14:30;;;;;;;;;;;1.00;99.90;;;;;;5018479;28;19909;-77
2023/01/26 07:16:56;;;;;;;;;;;1.00;99.90;;;;;;5018037;28;20549;-78
2023/01/26 07:19:21;;;;;;;;;;;1.00;99.90;;;;;;5004205;28;19909;-78
2023/01/26 07:21:47;;;;;;;;;;;0.90;99.90;;;;;;5004212;28;19913;-79
2023/01/26 07:24:13;;;;;;;;;;;1.00;99.90;;;;;;5017983;28;19937;-78
2023/01/26 07:26:39;;;;;;;;;;;1.00;99.90;;;;;;5010148;28;19930;-75
2023/01/26 07:29:04;;;;;;;;;;;1.00;99.90;;;;;;5010705;28;20347;-76
2023/01/26 07:31:30;;;;;;;;;;;1.00;99.90;;;;;;5008270;28;19909;-76
2023/01/26 07:33:56;;;;;;;;;;;0.90;99.90;;;;;;5009274;28;19936;-76
2023/01/26 07:36:21;;;;;;;;;;;0.90;99.90;;;;;;5014000;28;19924;-75
2023/01/26 07:38:47;;;;;;;;;;;1.00;99.90;;;;;;5007995;28;20362;-76
2023/01/26 07:41:12;;;;;;;;;;;1.00;99.90;;;;;;5007397;28;19909;-77
2023/01/26 07:43:38;;;;;;;;;;;1.00;99.90;;;;;;5011109;28;20393;-76
2023/01/26 07:46:04;;;;;;;;;;;1.00;99.90;;;;;;5011094;28;19978;-75
2023/01/26 07:48:30;;;;;;;;;;;1.10;99.90;;;;;;5013978;28;19940;-75
2023/01/26 07:51:00;;;;;;;;;;;1.10;99.90;;;;;;5011982;28;19987;-76
2023/01/26 07:53:28;;;;;;;;;;;1.10;99.90;;;;;;5010213;28;19942;-76
2023/01/26 07:55:54;;;;;;;;;;;1.00;99.90;;;;;;5017970;28;19956;-76
2023/01/26 07:58:20;;;;;;;;;;;1.10;99.90;;;;;;5008678;28;20400;-75
2023/01/26 08:00:46;;;;;;;;;;;1.10;99.90;;;;;;5009562;28;20383;-77
2023/01/26 08:03:12;;;;;;;;;;;1.00;99.90;;;;;;5010634;28;19909;-76
2023/01/26 08:05:37;;;;;;;;;;;1.00;99.90;;;;;;5019722;28;19912;-75
2023/01/26 08:08:03;;;;;;;;;;;1.10;99.90;;;;;;5011895;28;19909;-75
2023/01/26 08:10:30;;;;;;;;;;;1.10;99.90;;;;;;4990513;28;19915;-76
2023/01/26 08:12:58;;;;;;;;;;;1.20;99.90;;;;;;5008083;28;19948;-75
2023/01/26 08:15:23;;;;;;;;;;;1.20;99.90;;;;;;5016330;28;19939;-76
2023/01/26 08:17:49;;;;;;;;;;;1.30;99.90;;;;;;5006127;28;20358;-76
2023/01/26 08:20:14;;;;;;;;;;;1.10;99.90;;;;;;5003524;28;19967;-76
2023/01/26 08:22:40;;;;;;;;;;;1.20;99.90;;;;;;5015511;28;19919;-75
2023/01/26 08:25:06;;;;;;;;;;;1.20;99.90;;;;;;5021363;28;20395;-77
2023/01/26 08:27:31;;;;;;;;;;;1.10;99.90;;;;;;5022537;28;19913;-76
2023/01/26 08:29:58;;;;;;;;;;;1.30;99.90;;;;;;5015488;28;19908;-75
2023/01/26 08:32:24;;;;;;;;;;;1.20;99.90;;;;;;5007744;28;20474;-75
2023/01/26 08:34:49;;;;;;;;;;;1.20;99.90;;;;;;5009871;28;19918;-77
2023/01/26 08:37:15;;;;;;;;;;;1.30;99.90;;;;;;5003176;28;19917;-77
2023/01/26 08:39:41;;;;;;;;;;;1.30;99.90;;;;;;5006968;28;19909;-77
2023/01/26 08:42:06;;;;;;;;;;;1.30;99.90;;;;;;5012001;28;19909;-75
2023/01/26 08:44:32;;;;;;;;;;;1.40;99.90;;;;;;5005138;28;19916;-75
2023/01/26 08:46:57;;;;;;;;;;;1.40;99.90;;;;;;5003622;28;20051;-76
2023/01/26 08:49:23;;;;;;;;;;;1.50;99.90;;;;;;5010247;28;19910;-76
2023/01/26 08:51:48;;;;;;;;;;;1.40;99.90;;;;;;5007208;28;19909;-76
2023/01/26 08:54:14;;;;;;;;;;;1.50;99.90;;;;;;5003484;28;20280;-76
2023/01/26 08:56:39;;;;;;;;;;;1.70;99.90;;;;;;5003091;28;19921;-76
2023/01/26 08:59:06;;;;;;;;;;;1.70;99.90;;;;;;5017853;28;20823;-76
2023/01/26 09:01:32;;;;;;;;;;;1.70;99.90;;;;;;5004050;28;20737;-75
2023/01/26 09:03:57;;;;;;;;;;;1.90;99.90;;;;;;5007596;28;19935;-76
2023/01/26 09:06:23;;;;;;;;;;;2.00;99.90;;;;;;5014170;28;19917;-76
2023/01/26 09:08:48;;;;;;;;;;;2.00;99.90;;;;;;5008982;28;19909;-76
2023/01/26 09:11:14;;;;;;;;;;;2.10;99.90;;;;;;5015380;28;20214;-76
2023/01/26 09:13:40;;;;;;;;;;;2.10;99.90;;;;;;5008491;28;19960;-76
2023/01/26 09:16:06;;;;;;;;;;;2.20;99.90;;;;;;5002514;28;19921;-76
2023/01/26 09:18:32;;;;;;;;;;;2.20;99.90;;;;;;5011846;28;20007;-75
2023/01/26 09:21:04;;;;;;;;;;;2.10;99.90;;;;;;5013391;28;20372;-76
2023/01/26 09:23:30;;;;;;;;;;;2.10;99.90;;;;;;5013904;28;20440;-75
2023/01/26 09:25:56;;;;;;;;;;;2.20;99.90;;;;;;5019626;28;19919;-76
2023/01/26 09:28:22;;;;;;;;;;;2.10;99.90;;;;;;5015718;28;20671;-76
2023/01/26 09:30:47;;;;;;;;;;;2.20;99.90;;;;;;5006832;28;19944;-76
2023/01/26 09:33:13;;;;;;;;;;;2.40;99.90;;;;;;5013695;28;19913;-75
2023/01/26 09:35:38;;;;;;;;;;;2.40;99.90;;;;;;5008322;28;19917;-76
2023/01/26 09:38:04;;;;;;;;;;;2.50;99.90;;;;;;5009761;28;19953;-76
2023/01/26 09:40:48;;;;;;;;;;;2.70;99.90;;;;;;5006107;28;19917;-76
2023/01/26 09:43:33;;;;;;;;;;;2.70;99.90;;;;;;5016717;28;19909;-76
2023/01/26 09:46:09;;;;;;;;;;;2.70;99.90;;;;;;5018170;28;19909;-76
2023/01/26 09:48:42;;;;;;;;;;;2.80;99.90;;;;;;5010476;28;19914;-75
2023/01/26 09:51:14;;;;;;;;;;;2.80;99.90;;;;;;5017393;28;19909;-75
2023/01/26 09:53:40;;;;;;;;;;;3.00;99.90;;;;;;5020801;28;19955;-75
2023/01/26 09:56:09;;;;;;;;;;;3.10;99.90;;;;;;5007630;28;20016;-75
2023/01/26 09:58:38;;;;;;;;;;;2.90;99.90;;;;;;5009224;28;20321;-77
2023/01/26 10:01:04;;;;;;;;;;;3.10;99.90;;;;;;4989223;28;19905;-75
2023/01/26 10:03:32;;;;;;;;;;;3.20;99.90;;;;;;5013008;28;20344;-77
2023/01/26 10:06:10;;;;;;;;;;;3.30;99.90;;;;;;5011928;28;19916;-75
2023/01/26 10:08:36;;;;;;;;;;;3.20;99.90;;;;;;5012918;28;19920;-75
2023/01/26 10:11:04;;;;;;;;;;;3.30;99.90;;;;;;5011415;28;19909;-75
2023/01/26 10:13:29;;;;;;;;;;;3.30;99.90;;;;;;5021403;28;19952;-76
2023/01/26 10:16:00;;;;;;;;;;;3.10;99.90;;;;;;5008840;28;20233;-75
2023/01/26 10:18:29;;;;;;;;;;;3.00;99.90;;;;;;5017546;28;20505;-76
2023/01/26 10:20:56;;;;;;;;;;;3.20;99.90;;;;;;5005526;28;19913;-76
2023/01/26 10:23:24;;;;;;;;;;;3.40;99.90;;;;;;5013924;28;19919;-76
2023/01/26 10:25:50;;;;;;;;;;;3.40;99.90;;;;;;5023694;28;19909;-76
2023/01/26 10:28:17;;;;;;;;;;;3.40;99.90;;;;;;5011295;28;20685;-76
2023/01/26 10:30:44;;;;;;;;;;;3.30;99.90;;;;;;5007554;28;19909;-77
2023/01/26 10:33:21;;;;;;;;;;;3.40;99.90;;;;;;5013396;28;19916;-77
2023/01/26 10:35:46;;;;;;;;;;;3.40;99.90;;;;;;5006400;28;19917;-76
2023/01/26 10:38:27;;;;;;;;;;;3.20;99.90;;;;;;5013602;28;19916;-75
2023/01/26 10:40:53;;;;;;;;;;;3.20;99.90;;;;;;5004630;28;19963;-77
2023/01/26 10:43:18;;;;;;;;;;;3.30;99.90;;;;;;5012731;28;20416;-75
2023/01/26 10:45:45;;;;;;;;;;;3.60;99.90;;;;;;5014267;28;19909;-75
2023/01/26 10:48:25;;;;;;;;;;;3.30;99.90;;;;;;5005112;28;19916;-76
2023/01/26 10:50:51;;;;;;;;;;;3.50;99.90;;;;;;5006581;28;19957;-77
2023/01/26 10:53:27;;;;;;;;;;;3.80;99.90;;;;;;5012644;28;19996;-75
2023/01/26 10:55:58;;;;;;;;;;;3.60;99.90;;;;;;5014533;28;19955;-76
2023/01/26 10:58:45;;;;;;;;;;;3.90;99.90;;;;;;5004968;28;19947;-75
2023/01/26 11:01:13;;;;;;;;;;;4.10;99.90;;;;;;5007795;28;20012;-76
2023/01/26 11:03:39;;;;;;;;;;;4.00;99.90;;;;;;5015641;28;20006;-75
2023/01/26 11:06:13;;;;;;;;;;;4.20;99.90;;;;;;5017785;28;20468;-75
2023/01/26 11:08:39;;;;;;;;;;;4.10;99.90;;;;;;5010068;28;19923;-75
2023/01/26 11:11:09;;;;;;;;;;;4.00;99.90;;;;;;5023316;28;19909;-75
2023/01/26 11:13:35;;;;;;;;;;;4.00;99.90;;;;;;5006107;28;19916;-75
2023/01/26 11:16:09;;;;;;;;;;;4.00;99.90;;;;;;5004283;28;20036;-77
2023/01/26 11:18:41;;;;;;;;;;;4.10;99.90;;;;;;5016592;28;19917;-76
2023/01/26 11:21:19;;;;;;;;;;;4.00;99.90;;;;;;5004360;28;19909;-76
2023/01/26 11:23:47;;;;;;;;;;;3.90;99.90;;;;;;5012758;28;19917;-75
2023/01/26 11:26:29;;;;;;;;;;;4.00;99.90;;;;;;5015922;28;19909;-76
2023/01/26 11:29:01;;;;;;;;;;;4.20;99.90;;;;;;5011920;28;19920;-75
2023/01/26 11:31:35;;;;;;;;;;;4.40;99.90;;;;;;5013413;28;19920;-76
2023/01/26 11:34:01;;;;;;;;;;;4.40;99.90;;;;;;5004180;28;19944;-75
2023/01/26 11:36:38;;;;;;;;;;;4.30;99.90;;;;;;5012147;28;19917;-75
2023/01/26 11:39:09;;;;;;;;;;;4.70;99.90;;;;;;5011779;28;20384;-75
2023/01/26 11:41:44;;;;;;;;;;;5.00;99.90;;;;;;5005770;28;19979;-76
2023/01/26 11:44:20;;;;;;;;;;;4.70;99.90;;;;;;5015670;28;19938;-77
2023/01/26 11:47:04;;;;;;;;;;;4.50;99.90;;;;;;5006521;28;19920;-76
2023/01/26 11:49:59;;;;;;;;;;;4.10;99.90;;;;;;5021141;28;19909;-77
2023/01/26 11:52:33;;;;;;;;;;;4.10;99.90;;;;;;4980487;28;19910;-75
2023/01/26 11:55:17;;;;;;;;;;;3.90;99.90;;;;;;5008093;28;20015;-76
2023/01/26 11:57:53;;;;;;;;;;;3.90;99.90;;;;;;5014901;28;19916;-76
2023/01/26 12:00:18;;;;;;;;;;;3.80;99.90;;;;;;5014436;28;20135;-75
2023/01/26 12:02:51;;;;;;;;;;;4.20;99.90;;;;;;5006324;28;19909;-75
2023/01/26 12:05:28;;;;;;;;;;;4.40;99.90;;;;;;5003687;28;19917;-77
2023/01/26 12:08:04;;;;;;;;;;;4.50;99.90;;;;;;5013654;28;19916;-75
2023/01/26 12:10:35;;;;;;;;;;;4.60;99.90;;;;;;5015611;28;19909;-77
2023/01/26 12:13:24;;;;;;;;;;;4.40;99.90;;;;;;5009000;28;20367;-76
2023/01/26 12:15:52;;;;;;;;;;;4.40;99.90;;;;;;5009711;28;19917;-76
2023/01/26 12:18:23;;;;;;;;;;;4.50;99.90;;;;;;5006481;28;19987;-76
2023/01/26 12:20:59;;;;;;;;;;;4.60;99.90;;;;;;5006273;28;19953;-75
2023/01/26 12:23:48;;;;;;;;;;;4.50;99.90;;;;;;5017219;28;19924;-76
2023/01/26 12:26:15;;;;;;;;;;;4.60;99.90;;;;;;5003689;28;19917;-76
2023/01/26 12:28:41;;;;;;;;;;;4.60;99.50;;;;;;5003563;28;19952;-76
2023/01/26 12:31:11;;;;;;;;;;;4.10;99.00;;;;;;5014452;28;20445;-76
2023/01/26 12:33:38;;;;;;;;;;;4.10;99.90;;;;;;5013330;28;20650;-76
2023/01/26 12:36:09;;;;;;;;;;;4.10;99.90;;;;;;5011132;28;19917;-75
2023/01/26 12:38:39;;;;;;;;;;;3.80;99.90;;;;;;5005218;28;20305;-76
2023/01/26 12:41:08;;;;;;;;;;;3.80;99.90;;;;;;5005565;28;19913;-77
2023/01/26 12:43:39;;;;;;;;;;;4.00;99.90;;;;;;5014491;28;20063;-76
2023/01/26 12:46:06;;;;;;;;;;;4.10;99.90;;;;;;5011038;28;19909;-76
2023/01/26 12:48:47;;;;;;;;;;;4.10;99.40;;;;;;5006395;28;19914;-76
2023/01/26 12:51:17;;;;;;;;;;;4.00;99.90;;;;;;5015767;28;19916;-77
2023/01/26 12:53:43;;;;;;;;;;;4.40;99.90;;;;;;5007553;28;19909;-75
2023/01/26 12:56:11;;;;;;;;;;;4.80;99.90;;;;;;5018803;28;19975;-76
2023/01/26 12:58:39;;;;;;;;;;;4.60;99.90;;;;;;5009860;28;19909;-76
2023/01/26 13:01:25;;;;;;;;;;;4.30;99.90;;;;;;5013656;28;19945;-76
2023/01/26 13:04:13;;;;;;;;;;;4.00;99.90;;;;;;5005194;28;19915;-76
2023/01/26 13:06:39;;;;;;;;;;;4.10;99.90;;;;;;5014570;28;19912;-76
2023/01/26 13:09:21;;;;;;;;;;;4.30;99.90;;;;;;5015895;28;20467;-76
2023/01/26 13:11:54;;;;;;;;;;;4.50;99.90;;;;;;5009292;28;19978;-76
2023/01/26 13:14:38;;;;;;;;;;;4.00;99.90;;;;;;5011458;28;20024;-76
2023/01/26 13:17:16;;;;;;;;;;;4.00;99.90;;;;;;5015685;28;19913;-75
2023/01/26 13:19:41;;;;;;;;;;;3.90;99.90;;;;;;5015755;28;19916;-76
2023/01/26 13:22:22;;;;;;;;;;;4.00;99.90;;;;;;5013375;28;19913;-75
2023/01/26 13:24:54;;;;;;;;;;;4.10;99.90;;;;;;5019694;28;19955;-76
2023/01/26 13:27:30;;;;;;;;;;;3.90;99.90;;;;;;5010338;28;20421;-76
2023/01/26 13:29:56;;;;;;;;;;;4.10;99.90;;;;;;5004649;28;20753;-75
2023/01/26 13:32:21;;;;;;;;;;;4.30;99.90;;;;;;5009535;28;19909;-75
2023/01/26 13:34:52;;;;;;;;;;;4.10;99.90;;;;;;5007545;28;20428;-76
2023/01/26 13:37:32;;;;;;;;;;;4.40;99.90;;;;;;5014039;28;19909;-76
2023/01/26 13:39:59;;;;;;;;;;;4.30;99.90;;;;;;5002944;28;20008;-77
2023/01/26 13:42:40;;;;;;;;;;;4.30;99.90;;;;;;5003223;28;19959;-75
2023/01/26 13:45:12;;;;;;;;;;;4.20;99.90;;;;;;5011436;28;19913;-76
2023/01/26 13:47:43;;;;;;;;;;;4.10;99.90;;;;;;5014011;28;19976;-75
2023/01/26 13:50:28;;;;;;;;;;;4.10;99.90;;;;;;5012964;28;20800;-75
2023/01/26 13:52:54;;;;;;;;;;;4.10;99.90;;;;;;4998086;28;20027;-75
2023/01/26 13:55:24;;;;;;;;;;;4.10;99.90;;;;;;5002431;28;19987;-75
2023/01/26 13:58:08;;;;;;;;;;;4.00;99.90;;;;;;5006904;28;19913;-76
2023/01/26 14:00:34;;;;;;;;;;;4.10;99.90;;;;;;5008703;28;19921;-75
2023/01/26 14:02:59;;;;;;;;;;;4.10;99.90;;;;;;4993839;28;19916;-76
2023/01/26 14:05:25;;;;;;;;;;;4.10;99.90;;;;;;5017661;28;19909;-75
2023/01/26 14:07:51;;;;;;;;;;;3.80;99.90;;;;;;4996938;28;19910;-76
2023/01/26 14:10:18;;;;;;;;;;;3.80;99.90;;;;;;5017652;28;19909;-75
2023/01/26 14:12:51;;;;;;;;;;;3.50;99.90;;;;;;5019479;28;19905;-76
2023/01/26 14:15:19;;;;;;;;;;;3.20;99.90;;;;;;5014797;28;19927;-76
2023/01/26 14:17:47;;;;;;;;;;;3.30;99.90;;;;;;5011334;28;19916;-76
2023/01/26 14:20:22;;;;;;;;;;;3.00;99.90;;;;;;5006229;28;19917;-76
2023/01/26 14:23:00;;;;;;;;;;;3.00;99.90;;;;;;5021215;28;19920;-77
2023/01/26 14:25:26;;;;;;;;;;;3.20;99.90;;;;;;5012919;28;19988;-77
2023/01/26 14:27:52;;;;;;;;;;;3.00;99.90;;;;;;5005972;28;19909;-75
2023/01/26 14:30:28;;;;;;;;;;;2.90;99.90;;;;;;5006309;28;19955;-75
2023/01/26 14:32:57;;;;;;;;;;;2.70;99.90;;;;;;5010216;28;20434;-75
2023/01/26 14:35:23;;;;;;;;;;;2.70;99.90;;;;;;5006219;28;19924;-75
2023/01/26 14:37:49;;;;;;;;;;;2.90;99.90;;;;;;5005747;28;19913;-76
2023/01/26 14:40:22;;;;;;;;;;;3.00;99.90;;;;;;5007200;28;20674;-75
2023/01/26 14:42:49;;;;;;;;;;;2.90;99.90;;;;;;4992048;28;19991;-76
2023/01/26 14:45:16;;;;;;;;;;;3.00;99.90;;;;;;5005082;28;19914;-76
2023/01/26 14:47:42;;;;;;;;;;;2.80;99.90;;;;;;5017355;28;19910;-76
2023/01/26 14:50:29;;;;;;;;;;;2.70;99.90;;;;;;5011863;28;19909;-74
2023/01/26 14:52:55;;;;;;;;;;;2.70;99.90;;;;;;5003695;28;19916;-76
2023/01/26 14:55:26;;;;;;;;;;;2.90;99.90;;;;;;5016972;28;19925;-77
2023/01/26 14:57:52;;;;;;;;;;;3.10;99.90;;;;;;5004953;28;19956;-76
2023/01/26 15:00:26;;;;;;;;;;;3.00;99.90;;;;;;5013230;28;19925;-76
2023/01/26 15:02:53;;;;;;;;;;;2.90;99.90;;;;;;5011720;28;19996;-75
2023/01/26 15:05:20;;;;;;;;;;;3.00;99.90;;;;;;5008685;28;19916;-76
2023/01/26 15:07:49;;;;;;;;;;;3.30;99.90;;;;;;5022925;28;19935;-75
2023/01/26 15:10:26;;;;;;;;;;;3.40;99.90;;;;;;5010538;28;19991;-76
2023/01/26 15:13:15;;;;;;;;;;;3.30;99.90;;;;;;5011691;28;20458;-76
2023/01/26 15:15:42;;;;;;;;;;;3.30;99.90;;;;;;4995768;28;19923;-75
2023/01/26 15:18:13;;;;;;;;;;;3.30;99.90;;;;;;5010331;28;19955;-76
2023/01/26 15:20:51;;;;;;;;;;;3.20;99.90;;;;;;5010361;28;19963;-75
2023/01/26 15:23:21;;;;;;;;;;;3.20;99.90;;;;;;5010812;28;20281;-75